sensor_id;sensor_type;location;lat;lon;timestamp;temperature;humidity
12901;DHT22;6518;50.930;5.344;2024-03-22T00:01:13;12.90;99.90
12901;DHT22;6518;50.930;5.344;2024-03-22T00:03:38;12.90;99.90
12901;DHT22;6518;50.930;5.344;2024-03-22T00:06:07;12.90;99.90
12901;DHT22;6518;50.930;5.344;2024-03-22T00:08:33;12.90;99.90
12901;DHT22;6518;50.930;5.344;2024-03-22T00:11:00;12.90;99.90
12901;DHT22;6518;50.930;5.344;2024-03-22T00:13:26;12.90;99.90
12901;DHT22;6518;50.930;5.344;2024-03-22T00:15:53;12.90;99.90
12901;DHT22;6518;50.930;5.344;2024-03-22T00:18:19;12.90;99.90
12901;DHT22;6518;50.930;5.344;2024-03-22T00:20:46;12.90;99.90
12901;DHT22;6518;50.930;5.344;2024-03-22T00:23:13;12.90;99.90
12901;DHT22;6518;50.930;5.344;2024-03-22T00:25:40;12.90;99.90
12901;DHT22;6518;50.930;5.344;2024-03-22T00:28:06;12.90;99.90
12901;DHT22;6518;50.930;5.344;2024-03-22T00:30:33;12.90;99.90
12901;DHT22;6518;50.930;5.344;2024-03-22T00:32:58;12.90;99.90
12901;DHT22;6518;50.930;5.344;2024-03-22T00:35:25;12.90;99.90
12901;DHT22;6518;50.930;5.344;2024-03-22T00:37:52;12.90;99.90
12901;DHT22;6518;50.930;5.344;2024-03-22T00:40:19;12.90;99.90
12901;DHT22;6518;50.930;5.344;2024-03-22T00:42:46;12.90;99.90
12901;DHT22;6518;50.930;5.344;2024-03-22T00:45:12;12.90;99.90
12901;DHT22;6518;50.930;5.344;2024-03-22T00:47:39;12.90;99.90
12901;DHT22;6518;50.930;5.344;2024-03-22T00:50:06;12.90;99.90
12901;DHT22;6518;50.930;5.344;2024-03-22T00:52:33;12.90;99.90
12901;DHT22;6518;50.930;5.344;2024-03-22T00:54:59;12.90;99.90
12901;DHT22;6518;50.930;5.344;2024-03-22T00:57:28;12.90;99.90
12901;DHT22;6518;50.930;5.344;2024-03-22T00:59:54;12.90;99.90
12901;DHT22;6518;50.930;5.344;2024-03-22T01:02:21;12.90;99.90
12901;DHT22;6518;50.930;5.344;2024-03-22T01:04:48;12.90;99.90
12901;DHT22;6518;50.930;5.344;2024-03-22T01:07:16;12.90;99.90
12901;DHT22;6518;50.930;5.344;2024-03-22T01:09:44;12.90;99.90
12901;DHT22;6518;50.930;5.344;2024-03-22T01:12:11;12.90;99.90
12901;DHT22;6518;50.930;5.344;2024-03-22T01:14:38;12.90;99.90
12901;DHT22;6518;50.930;5.344;2024-03-22T01:17:05;12.90;99.90
12901;DHT22;6518;50.930;5.344;2024-03-22T01:19:31;12.90;99.90
12901;DHT22;6518;50.930;5.344;2024-03-22T01:22:01;13.00;99.90
12901;DHT22;6518;50.930;5.344;2024-03-22T01:24:27;13.00;99.90
12901;DHT22;6518;50.930;5.344;2024-03-22T01:26:54;12.90;99.90
12901;DHT22;6518;50.930;5.344;2024-03-22T01:29:20;12.90;99.90
12901;DHT22;6518;50.930;5.344;2024-03-22T01:31:50;12.90;99.90
12901;DHT22;6518;50.930;5.344;2024-03-22T01:34:17;12.90;99.90
12901;DHT22;6518;50.930;5.344;2024-03-22T01:36:45;12.90;99.90
12901;DHT22;6518;50.930;5.344;2024-03-22T01:39:11;12.90;99.90
12901;DHT22;6518;50.930;5.344;2024-03-22T01:41:39;12.90;99.90
12901;DHT22;6518;50.930;5.344;2024-03-22T01:44:05;12.90;99.90
12901;DHT22;6518;50.930;5.344;2024-03-22T01:46:32;12.90;99.90
12901;DHT22;6518;50.930;5.344;2024-03-22T01:49:00;12.90;99.90
12901;DHT22;6518;50.930;5.344;2024-03-22T01:51:27;12.90;99.90
12901;DHT22;6518;50.930;5.344;2024-03-22T01:53:53;12.90;99.90
12901;DHT22;6518;50.930;5.344;2024-03-22T01:56:22;12.90;99.90
12901;DHT22;6518;50.930;5.344;2024-03-22T01:58:48;12.90;99.90
12901;DHT22;6518;50.930;5.344;2024-03-22T02:01:15;12.90;99.90
12901;DHT22;6518;50.930;5.344;2024-03-22T02:03:41;12.90;99.90
12901;DHT22;6518;50.930;5.344;2024-03-22T02:06:10;12.90;99.90
12901;DHT22;6518;50.930;5.344;2024-03-22T02:08:37;12.90;99.90
12901;DHT22;6518;50.930;5.344;2024-03-22T02:11:06;12.90;99.90
12901;DHT22;6518;50.930;5.344;2024-03-22T02:13:32;12.90;99.90
12901;DHT22;6518;50.930;5.344;2024-03-22T02:15:58;12.90;99.90
12901;DHT22;6518;50.930;5.344;2024-03-22T02:18:24;12.90;99.90
12901;DHT22;6518;50.930;5.344;2024-03-22T02:20:51;12.90;99.90
12901;DHT22;6518;50.930;5.344;2024-03-22T02:23:28;12.90;99.90
12901;DHT22;6518;50.930;5.344;2024-03-22T02:25:55;12.90;99.90
12901;DHT22;6518;50.930;5.344;2024-03-22T02:28:22;12.90;99.90
12901;DHT22;6518;50.930;5.344;2024-03-22T02:30:51;12.90;99.90
12901;DHT22;6518;50.930;5.344;2024-03-22T02:33:17;12.90;99.90
12901;DHT22;6518;50.930;5.344;2024-03-22T02:35:46;12.90;99.90
12901;DHT22;6518;50.930;5.344;2024-03-22T02:38:12;12.80;99.90
12901;DHT22;6518;50.930;5.344;2024-03-22T02:40:40;12.80;99.90
12901;DHT22;6518;50.930;5.344;2024-03-22T02:43:06;12.80;99.90
12901;DHT22;6518;50.930;5.344;2024-03-22T02:45:34;12.80;99.90
12901;DHT22;6518;50.930;5.344;2024-03-22T02:48:00;12.80;99.90
12901;DHT22;6518;50.930;5.344;2024-03-22T02:50:26;12.80;99.90
12901;DHT22;6518;50.930;5.344;2024-03-22T02:52:52;12.80;99.90
12901;DHT22;6518;50.930;5.344;2024-03-22T02:55:19;12.80;99.90
12901;DHT22;6518;50.930;5.344;2024-03-22T02:57:49;12.80;99.90
12901;DHT22;6518;50.930;5.344;2024-03-22T03:00:17;12.80;99.90
12901;DHT22;6518;50.930;5.344;2024-03-22T03:02:43;12.70;99.90
12901;DHT22;6518;50.930;5.344;2024-03-22T03:05:10;12.70;99.90
12901;DHT22;6518;50.930;5.344;2024-03-22T03:07:36;12.70;99.90
12901;DHT22;6518;50.930;5.344;2024-03-22T03:10:04;12.70;99.90
12901;DHT22;6518;50.930;5.344;2024-03-22T03:12:30;12.70;99.90
12901;DHT22;6518;50.930;5.344;2024-03-22T03:14:59;12.70;99.90
12901;DHT22;6518;50.930;5.344;2024-03-22T03:17:25;12.70;99.90
12901;DHT22;6518;50.930;5.344;2024-03-22T03:19:53;12.70;99.90
12901;DHT22;6518;50.930;5.344;2024-03-22T03:22:20;12.70;99.90
12901;DHT22;6518;50.930;5.344;2024-03-22T03:24:47;12.70;99.90
12901;DHT22;6518;50.930;5.344;2024-03-22T03:27:13;12.70;99.90
12901;DHT22;6518;50.930;5.344;2024-03-22T03:29:40;12.70;99.90
12901;DHT22;6518;50.930;5.344;2024-03-22T03:32:08;12.60;99.90
12901;DHT22;6518;50.930;5.344;2024-03-22T03:34:35;12.40;99.90
12901;DHT22;6518;50.930;5.344;2024-03-22T03:37:01;12.60;99.90
12901;DHT22;6518;50.930;5.344;2024-03-22T03:39:29;12.60;99.90
12901;DHT22;6518;50.930;5.344;2024-03-22T03:41:55;12.70;99.90
12901;DHT22;6518;50.930;5.344;2024-03-22T03:44:22;12.70;99.90
12901;DHT22;6518;50.930;5.344;2024-03-22T03:46:49;12.70;99.90
12901;DHT22;6518;50.930;5.344;2024-03-22T03:49:17;12.70;99.90
12901;DHT22;6518;50.930;5.344;2024-03-22T03:51:43;12.70;99.90
12901;DHT22;6518;50.930;5.344;2024-03-22T03:54:10;12.60;99.90
12901;DHT22;6518;50.930;5.344;2024-03-22T03:56:36;12.60;99.90
12901;DHT22;6518;50.930;5.344;2024-03-22T03:59:03;12.70;99.90
12901;DHT22;6518;50.930;5.344;2024-03-22T04:01:29;12.70;99.90
12901;DHT22;6518;50.930;5.344;2024-03-22T04:03:55;12.70;99.90
12901;DHT22;6518;50.930;5.344;2024-03-22T04:06:23;12.60;99.90
12901;DHT22;6518;50.930;5.344;2024-03-22T04:08:50;12.60;99.90
12901;DHT22;6518;50.930;5.344;2024-03-22T04:11:16;12.60;99.90
12901;DHT22;6518;50.930;5.344;2024-03-22T04:13:43;12.60;99.90
12901;DHT22;6518;50.930;5.344;2024-03-22T04:16:09;12.60;99.90
12901;DHT22;6518;50.930;5.344;2024-03-22T04:18:36;12.60;99.90
12901;DHT22;6518;50.930;5.344;2024-03-22T04:21:02;12.70;99.90
12901;DHT22;6518;50.930;5.344;2024-03-22T04:23:30;12.60;99.90
12901;DHT22;6518;50.930;5.344;2024-03-22T04:25:58;12.70;99.90
12901;DHT22;6518;50.930;5.344;2024-03-22T04:28:25;12.70;99.90
12901;DHT22;6518;50.930;5.344;2024-03-22T04:30:56;12.60;99.90
12901;DHT22;6518;50.930;5.344;2024-03-22T04:33:23;12.60;99.90
12901;DHT22;6518;50.930;5.344;2024-03-22T04:35:49;12.60;99.90
12901;DHT22;6518;50.930;5.344;2024-03-22T04:38:16;12.60;99.90
12901;DHT22;6518;50.930;5.344;2024-03-22T04:40:44;12.60;99.90
12901;DHT22;6518;50.930;5.344;2024-03-22T04:43:11;12.60;99.90
12901;DHT22;6518;50.930;5.344;2024-03-22T04:45:38;12.60;99.90
12901;DHT22;6518;50.930;5.344;2024-03-22T04:48:05;12.60;99.90
12901;DHT22;6518;50.930;5.344;2024-03-22T04:50:31;12.60;99.90
12901;DHT22;6518;50.930;5.344;2024-03-22T04:52:58;12.60;99.90
12901;DHT22;6518;50.930;5.344;2024-03-22T04:55:24;12.60;99.90
12901;DHT22;6518;50.930;5.344;2024-03-22T04:57:53;12.60;99.90
12901;DHT22;6518;50.930;5.344;2024-03-22T05:00:19;12.60;99.90
12901;DHT22;6518;50.930;5.344;2024-03-22T05:02:46;12.60;99.90
12901;DHT22;6518;50.930;5.344;2024-03-22T05:05:12;12.60;99.90
12901;DHT22;6518;50.930;5.344;2024-03-22T05:07:39;12.60;99.90
12901;DHT22;6518;50.930;5.344;2024-03-22T05:10:06;12.60;99.90
12901;DHT22;6518;50.930;5.344;2024-03-22T05:12:34;12.20;99.90
12901;DHT22;6518;50.930;5.344;2024-03-22T05:15:02;12.60;99.90
12901;DHT22;6518;50.930;5.344;2024-03-22T05:17:29;12.60;99.90
12901;DHT22;6518;50.930;5.344;2024-03-22T05:19:55;12.60;99.90
12901;DHT22;6518;50.930;5.344;2024-03-22T05:22:22;12.60;99.90
12901;DHT22;6518;50.930;5.344;2024-03-22T05:24:48;12.60;99.90
12901;DHT22;6518;50.930;5.344;2024-03-22T05:27:15;12.60;99.90
12901;DHT22;6518;50.930;5.344;2024-03-22T05:29:42;12.60;99.90
12901;DHT22;6518;50.930;5.344;2024-03-22T05:32:14;12.60;99.90
12901;DHT22;6518;50.930;5.344;2024-03-22T05:34:41;12.60;99.90
12901;DHT22;6518;50.930;5.344;2024-03-22T05:37:08;12.60;99.90
12901;DHT22;6518;50.930;5.344;2024-03-22T05:39:36;12.60;99.90
12901;DHT22;6518;50.930;5.344;2024-03-22T05:42:05;12.70;99.90
12901;DHT22;6518;50.930;5.344;2024-03-22T05:44:31;12.70;99.90
12901;DHT22;6518;50.930;5.344;2024-03-22T05:46:58;12.70;99.90
12901;DHT22;6518;50.930;5.344;2024-03-22T05:49:26;12.60;99.90
12901;DHT22;6518;50.930;5.344;2024-03-22T05:51:53;12.70;99.90
12901;DHT22;6518;50.930;5.344;2024-03-22T05:54:19;12.70;99.90
12901;DHT22;6518;50.930;5.344;2024-03-22T05:56:46;12.70;99.90
12901;DHT22;6518;50.930;5.344;2024-03-22T05:59:12;12.70;99.90
12901;DHT22;6518;50.930;5.344;2024-03-22T06:01:39;12.70;99.90
12901;DHT22;6518;50.930;5.344;2024-03-22T06:04:05;12.70;99.90
12901;DHT22;6518;50.930;5.344;2024-03-22T06:06:34;12.70;99.90
12901;DHT22;6518;50.930;5.344;2024-03-22T06:09:00;12.70;99.90
12901;DHT22;6518;50.930;5.344;2024-03-22T06:11:29;12.70;99.90
12901;DHT22;6518;50.930;5.344;2024-03-22T06:13:55;12.70;99.90
12901;DHT22;6518;50.930;5.344;2024-03-22T06:16:22;12.70;99.90
12901;DHT22;6518;50.930;5.344;2024-03-22T06:18:48;12.70;99.90
12901;DHT22;6518;50.930;5.344;2024-03-22T06:21:15;12.70;99.90
12901;DHT22;6518;50.930;5.344;2024-03-22T06:23:42;12.70;99.90
12901;DHT22;6518;50.930;5.344;2024-03-22T06:26:08;12.70;99.90
12901;DHT22;6518;50.930;5.344;2024-03-22T06:28:35;12.80;99.90
12901;DHT22;6518;50.930;5.344;2024-03-22T06:31:02;12.80;99.90
12901;DHT22;6518;50.930;5.344;2024-03-22T06:33:30;12.80;99.90
12901;DHT22;6518;50.930;5.344;2024-03-22T06:35:56;12.80;99.90
12901;DHT22;6518;50.930;5.344;2024-03-22T06:38:25;12.90;99.90
12901;DHT22;6518;50.930;5.344;2024-03-22T06:40:56;13.00;99.90
12901;DHT22;6518;50.930;5.344;2024-03-22T06:43:24;13.00;99.90
12901;DHT22;6518;50.930;5.344;2024-03-22T06:45:51;13.00;99.90
12901;DHT22;6518;50.930;5.344;2024-03-22T06:48:19;13.00;99.90
12901;DHT22;6518;50.930;5.344;2024-03-22T06:50:46;13.10;99.90
12901;DHT22;6518;50.930;5.344;2024-03-22T06:53:16;13.10;99.90
12901;DHT22;6518;50.930;5.344;2024-03-22T06:55:42;13.10;99.90
12901;DHT22;6518;50.930;5.344;2024-03-22T06:58:13;13.20;99.90
12901;DHT22;6518;50.930;5.344;2024-03-22T07:00:39;13.20;99.90
12901;DHT22;6518;50.930;5.344;2024-03-22T07:03:06;13.20;99.90
12901;DHT22;6518;50.930;5.344;2024-03-22T07:05:32;13.20;99.90
12901;DHT22;6518;50.930;5.344;2024-03-22T07:07:59;13.30;99.90
12901;DHT22;6518;50.930;5.344;2024-03-22T07:10:25;13.30;99.90
12901;DHT22;6518;50.930;5.344;2024-03-22T07:12:54;13.30;99.90
12901;DHT22;6518;50.930;5.344;2024-03-22T07:15:23;13.40;99.90
12901;DHT22;6518;50.930;5.344;2024-03-22T07:17:50;13.40;99.90
12901;DHT22;6518;50.930;5.344;2024-03-22T07:20:17;13.50;99.90
12901;DHT22;6518;50.930;5.344;2024-03-22T07:22:44;13.50;99.90
12901;DHT22;6518;50.930;5.344;2024-03-22T07:25:11;13.40;99.90
12901;DHT22;6518;50.930;5.344;2024-03-22T07:27:38;13.40;99.90
12901;DHT22;6518;50.930;5.344;2024-03-22T07:30:05;13.40;99.90
12901;DHT22;6518;50.930;5.344;2024-03-22T07:32:33;13.40;99.90
12901;DHT22;6518;50.930;5.344;2024-03-22T07:34:59;13.40;99.90
12901;DHT22;6518;50.930;5.344;2024-03-22T07:37:26;13.40;99.90
12901;DHT22;6518;50.930;5.344;2024-03-22T07:39:52;13.50;99.90
12901;DHT22;6518;50.930;5.344;2024-03-22T07:42:19;13.50;99.90
12901;DHT22;6518;50.930;5.344;2024-03-22T07:44:45;13.60;99.90
12901;DHT22;6518;50.930;5.344;2024-03-22T07:47:12;13.60;99.90
12901;DHT22;6518;50.930;5.344;2024-03-22T07:49:39;13.60;99.90
12901;DHT22;6518;50.930;5.344;2024-03-22T07:52:06;13.70;99.90
12901;DHT22;6518;50.930;5.344;2024-03-22T07:54:32;13.70;99.90
12901;DHT22;6518;50.930;5.344;2024-03-22T07:56:59;13.70;99.90
12901;DHT22;6518;50.930;5.344;2024-03-22T07:59:25;13.80;99.90
12901;DHT22;6518;50.930;5.344;2024-03-22T08:01:52;13.80;99.90
12901;DHT22;6518;50.930;5.344;2024-03-22T08:04:18;13.80;99.90
12901;DHT22;6518;50.930;5.344;2024-03-22T08:06:47;13.90;99.90
12901;DHT22;6518;50.930;5.344;2024-03-22T08:09:13;13.90;99.90
12901;DHT22;6518;50.930;5.344;2024-03-22T08:11:41;14.00;99.90
12901;DHT22;6518;50.930;5.344;2024-03-22T08:14:08;14.10;99.90
12901;DHT22;6518;50.930;5.344;2024-03-22T08:16:36;14.20;99.90
12901;DHT22;6518;50.930;5.344;2024-03-22T08:19:02;14.20;99.90
12901;DHT22;6518;50.930;5.344;2024-03-22T08:21:30;14.20;99.90
12901;DHT22;6518;50.930;5.344;2024-03-22T08:23:57;14.20;99.90
12901;DHT22;6518;50.930;5.344;2024-03-22T08:26:24;14.20;99.90
12901;DHT22;6518;50.930;5.344;2024-03-22T08:28:50;14.00;99.90
12901;DHT22;6518;50.930;5.344;2024-03-22T08:31:17;13.90;99.90
12901;DHT22;6518;50.930;5.344;2024-03-22T08:33:43;13.90;99.90
12901;DHT22;6518;50.930;5.344;2024-03-22T08:36:10;13.80;99.90
12901;DHT22;6518;50.930;5.344;2024-03-22T08:38:36;13.80;99.90
12901;DHT22;6518;50.930;5.344;2024-03-22T08:41:04;13.70;99.90
12901;DHT22;6518;50.930;5.344;2024-03-22T08:43:30;13.70;99.90
12901;DHT22;6518;50.930;5.344;2024-03-22T08:45:57;13.80;99.90
12901;DHT22;6518;50.930;5.344;2024-03-22T08:48:23;13.80;99.90
12901;DHT22;6518;50.930;5.344;2024-03-22T08:50:50;13.90;99.90
12901;DHT22;6518;50.930;5.344;2024-03-22T08:53:16;13.90;99.90
12901;DHT22;6518;50.930;5.344;2024-03-22T08:55:46;13.80;99.90
12901;DHT22;6518;50.930;5.344;2024-03-22T08:58:15;13.80;99.90
12901;DHT22;6518;50.930;5.344;2024-03-22T09:00:43;13.90;99.90
12901;DHT22;6518;50.930;5.344;2024-03-22T09:03:09;13.90;99.90
12901;DHT22;6518;50.930;5.344;2024-03-22T09:05:36;13.90;99.90
12901;DHT22;6518;50.930;5.344;2024-03-22T09:08:03;14.00;99.90
12901;DHT22;6518;50.930;5.344;2024-03-22T09:10:30;14.10;99.90
12901;DHT22;6518;50.930;5.344;2024-03-22T09:12:56;14.30;99.90
12901;DHT22;6518;50.930;5.344;2024-03-22T09:15:26;14.40;99.90
12901;DHT22;6518;50.930;5.344;2024-03-22T09:17:52;14.60;99.90
12901;DHT22;6518;50.930;5.344;2024-03-22T09:20:21;14.50;99.90
12901;DHT22;6518;50.930;5.344;2024-03-22T09:22:49;14.40;99.90
12901;DHT22;6518;50.930;5.344;2024-03-22T09:25:16;14.40;99.90
12901;DHT22;6518;50.930;5.344;2024-03-22T09:27:42;14.40;99.90
12901;DHT22;6518;50.930;5.344;2024-03-22T09:30:11;14.40;99.90
12901;DHT22;6518;50.930;5.344;2024-03-22T09:32:40;14.40;99.90
12901;DHT22;6518;50.930;5.344;2024-03-22T09:35:08;14.30;99.80
12901;DHT22;6518;50.930;5.344;2024-03-22T09:37:34;14.30;99.90
12901;DHT22;6518;50.930;5.344;2024-03-22T09:40:01;14.30;99.90
12901;DHT22;6518;50.930;5.344;2024-03-22T09:42:33;14.40;99.90
12901;DHT22;6518;50.930;5.344;2024-03-22T09:45:08;14.40;98.80
12901;DHT22;6518;50.930;5.344;2024-03-22T09:47:34;14.40;98.80
12901;DHT22;6518;50.930;5.344;2024-03-22T09:50:06;14.40;98.00
12901;DHT22;6518;50.930;5.344;2024-03-22T09:52:33;14.40;97.80
12901;DHT22;6518;50.930;5.344;2024-03-22T09:55:01;14.40;97.30
12901;DHT22;6518;50.930;5.344;2024-03-22T09:57:31;14.40;97.70
12901;DHT22;6518;50.930;5.344;2024-03-22T09:59:59;14.50;97.40
12901;DHT22;6518;50.930;5.344;2024-03-22T10:02:26;14.60;97.20
12901;DHT22;6518;50.930;5.344;2024-03-22T10:04:53;14.60;96.60
12901;DHT22;6518;50.930;5.344;2024-03-22T10:07:20;14.70;96.40
12901;DHT22;6518;50.930;5.344;2024-03-22T10:09:47;14.70;94.70
12901;DHT22;6518;50.930;5.344;2024-03-22T10:12:13;14.60;94.70
12901;DHT22;6518;50.930;5.344;2024-03-22T10:14:43;14.60;95.00
12901;DHT22;6518;50.930;5.344;2024-03-22T10:17:09;14.70;94.40
12901;DHT22;6518;50.930;5.344;2024-03-22T10:19:36;14.80;94.60
12901;DHT22;6518;50.930;5.344;2024-03-22T10:22:03;14.90;94.30
12901;DHT22;6518;50.930;5.344;2024-03-22T10:24:32;14.90;93.90
12901;DHT22;6518;50.930;5.344;2024-03-22T10:26:58;15.00;93.70
12901;DHT22;6518;50.930;5.344;2024-03-22T10:29:26;15.10;93.10
12901;DHT22;6518;50.930;5.344;2024-03-22T10:31:53;15.10;92.50
12901;DHT22;6518;50.930;5.344;2024-03-22T10:34:21;15.20;92.00
12901;DHT22;6518;50.930;5.344;2024-03-22T10:36:48;15.20;91.70
12901;DHT22;6518;50.930;5.344;2024-03-22T10:39:17;15.30;91.30
12901;DHT22;6518;50.930;5.344;2024-03-22T10:41:45;15.50;90.70
12901;DHT22;6518;50.930;5.344;2024-03-22T10:44:12;15.50;89.70
12901;DHT22;6518;50.930;5.344;2024-03-22T10:46:45;15.50;89.80
12901;DHT22;6518;50.930;5.344;2024-03-22T10:49:16;15.60;90.00
12901;DHT22;6518;50.930;5.344;2024-03-22T10:51:52;15.70;88.90
12901;DHT22;6518;50.930;5.344;2024-03-22T10:54:22;15.80;87.70
12901;DHT22;6518;50.930;5.344;2024-03-22T10:56:52;15.70;86.40
12901;DHT22;6518;50.930;5.344;2024-03-22T10:59:19;15.70;86.40
12901;DHT22;6518;50.930;5.344;2024-03-22T11:01:46;15.70;86.70
12901;DHT22;6518;50.930;5.344;2024-03-22T11:04:15;15.60;86.10
12901;DHT22;6518;50.930;5.344;2024-03-22T11:06:47;15.50;85.50
12901;DHT22;6518;50.930;5.344;2024-03-22T11:09:20;15.50;86.90
12901;DHT22;6518;50.930;5.344;2024-03-22T11:11:48;15.50;86.90
12901;DHT22;6518;50.930;5.344;2024-03-22T11:14:16;15.40;86.50
12901;DHT22;6518;50.930;5.344;2024-03-22T11:16:43;15.20;87.00
12901;DHT22;6518;50.930;5.344;2024-03-22T11:19:10;15.00;88.20
12901;DHT22;6518;50.930;5.344;2024-03-22T11:21:37;14.80;89.40
12901;DHT22;6518;50.930;5.344;2024-03-22T11:24:04;14.90;90.00
12901;DHT22;6518;50.930;5.344;2024-03-22T11:26:31;15.10;89.30
12901;DHT22;6518;50.930;5.344;2024-03-22T11:28:58;15.10;88.80
12901;DHT22;6518;50.930;5.344;2024-03-22T11:31:26;15.00;89.30
12901;DHT22;6518;50.930;5.344;2024-03-22T11:33:53;15.00;89.90
12901;DHT22;6518;50.930;5.344;2024-03-22T11:36:20;15.00;90.00
12901;DHT22;6518;50.930;5.344;2024-03-22T11:38:46;15.00;90.10
12901;DHT22;6518;50.930;5.344;2024-03-22T11:41:16;15.10;89.30
12901;DHT22;6518;50.930;5.344;2024-03-22T11:43:43;15.00;89.40
12901;DHT22;6518;50.930;5.344;2024-03-22T11:46:10;15.00;90.00
12901;DHT22;6518;50.930;5.344;2024-03-22T11:48:40;14.90;89.90
12901;DHT22;6518;50.930;5.344;2024-03-22T11:51:07;15.00;90.10
12901;DHT22;6518;50.930;5.344;2024-03-22T11:53:34;15.00;90.20
12901;DHT22;6518;50.930;5.344;2024-03-22T11:56:02;15.00;90.00
12901;DHT22;6518;50.930;5.344;2024-03-22T11:58:29;14.80;90.00
12901;DHT22;6518;50.930;5.344;2024-03-22T12:00:56;14.70;90.30
12901;DHT22;6518;50.930;5.344;2024-03-22T12:03:22;14.50;90.70
12901;DHT22;6518;50.930;5.344;2024-03-22T12:05:54;14.50;90.90
12901;DHT22;6518;50.930;5.344;2024-03-22T12:08:20;14.60;91.10
12901;DHT22;6518;50.930;5.344;2024-03-22T12:10:47;14.70;91.20
12901;DHT22;6518;50.930;5.344;2024-03-22T12:13:13;14.80;91.10
12901;DHT22;6518;50.930;5.344;2024-03-22T12:15:39;14.80;91.10
12901;DHT22;6518;50.930;5.344;2024-03-22T12:18:06;14.90;90.80
12901;DHT22;6518;50.930;5.344;2024-03-22T12:20:33;14.80;91.00
12901;DHT22;6518;50.930;5.344;2024-03-22T12:23:01;14.80;91.00
12901;DHT22;6518;50.930;5.344;2024-03-22T12:25:28;14.80;91.00
12901;DHT22;6518;50.930;5.344;2024-03-22T12:27:54;14.90;91.00
12901;DHT22;6518;50.930;5.344;2024-03-22T12:30:22;15.00;91.00
12901;DHT22;6518;50.930;5.344;2024-03-22T12:32:52;15.10;90.90
12901;DHT22;6518;50.930;5.344;2024-03-22T12:35:18;15.00;90.80
12901;DHT22;6518;50.930;5.344;2024-03-22T12:37:44;14.90;90.90
12901;DHT22;6518;50.930;5.344;2024-03-22T12:40:13;14.80;91.00
12901;DHT22;6518;50.930;5.344;2024-03-22T12:42:39;14.70;91.10
12901;DHT22;6518;50.930;5.344;2024-03-22T12:45:07;14.70;91.40
12901;DHT22;6518;50.930;5.344;2024-03-22T12:47:33;14.80;91.50
12901;DHT22;6518;50.930;5.344;2024-03-22T12:50:00;14.80;91.40
12901;DHT22;6518;50.930;5.344;2024-03-22T12:52:26;14.80;91.60
12901;DHT22;6518;50.930;5.344;2024-03-22T12:54:53;14.70;91.60
12901;DHT22;6518;50.930;5.344;2024-03-22T12:57:20;14.60;91.80
12901;DHT22;6518;50.930;5.344;2024-03-22T12:59:47;14.50;91.90
12901;DHT22;6518;50.930;5.344;2024-03-22T13:02:13;14.50;92.20
12901;DHT22;6518;50.930;5.344;2024-03-22T13:04:40;14.60;92.40
12901;DHT22;6518;50.930;5.344;2024-03-22T13:07:06;14.60;92.10
12901;DHT22;6518;50.930;5.344;2024-03-22T13:09:33;14.50;92.30
12901;DHT22;6518;50.930;5.344;2024-03-22T13:11:59;14.50;92.40
12901;DHT22;6518;50.930;5.344;2024-03-22T13:14:27;14.30;92.40
12901;DHT22;6518;50.930;5.344;2024-03-22T13:16:53;14.20;92.70
12901;DHT22;6518;50.930;5.344;2024-03-22T13:19:20;14.20;93.00
12901;DHT22;6518;50.930;5.344;2024-03-22T13:21:46;14.10;93.30
12901;DHT22;6518;50.930;5.344;2024-03-22T13:24:14;14.00;93.50
12901;DHT22;6518;50.930;5.344;2024-03-22T13:26:40;14.00;93.60
12901;DHT22;6518;50.930;5.344;2024-03-22T13:29:07;14.10;93.70
12901;DHT22;6518;50.930;5.344;2024-03-22T13:31:34;14.10;93.80
12901;DHT22;6518;50.930;5.344;2024-03-22T13:34:01;14.10;94.20
12901;DHT22;6518;50.930;5.344;2024-03-22T13:36:27;14.10;94.00
12901;DHT22;6518;50.930;5.344;2024-03-22T13:38:58;14.00;94.10
12901;DHT22;6518;50.930;5.344;2024-03-22T13:41:24;14.00;94.40
12901;DHT22;6518;50.930;5.344;2024-03-22T13:43:51;14.00;94.40
12901;DHT22;6518;50.930;5.344;2024-03-22T13:46:17;14.00;94.30
12901;DHT22;6518;50.930;5.344;2024-03-22T13:48:45;14.10;94.40
12901;DHT22;6518;50.930;5.344;2024-03-22T13:51:11;13.90;94.80
12901;DHT22;6518;50.930;5.344;2024-03-22T13:53:38;13.90;94.80
12901;DHT22;6518;50.930;5.344;2024-03-22T13:56:04;13.90;95.00
12901;DHT22;6518;50.930;5.344;2024-03-22T13:58:31;13.90;95.10
12901;DHT22;6518;50.930;5.344;2024-03-22T14:00:59;14.00;95.00
12901;DHT22;6518;50.930;5.344;2024-03-22T14:03:28;14.00;95.10
12901;DHT22;6518;50.930;5.344;2024-03-22T14:05:56;13.90;95.10
12901;DHT22;6518;50.930;5.344;2024-03-22T14:08:22;13.80;95.20
12901;DHT22;6518;50.930;5.344;2024-03-22T14:10:48;13.80;95.40
12901;DHT22;6518;50.930;5.344;2024-03-22T14:13:15;13.80;95.80
12901;DHT22;6518;50.930;5.344;2024-03-22T14:15:41;13.80;95.90
12901;DHT22;6518;50.930;5.344;2024-03-22T14:18:08;13.70;95.70
12901;DHT22;6518;50.930;5.344;2024-03-22T14:20:35;13.60;96.00
12901;DHT22;6518;50.930;5.344;2024-03-22T14:23:04;13.60;96.30
12901;DHT22;6518;50.930;5.344;2024-03-22T14:25:32;13.50;96.60
12901;DHT22;6518;50.930;5.344;2024-03-22T14:27:59;13.50;96.90
12901;DHT22;6518;50.930;5.344;2024-03-22T14:30:25;13.50;97.00
12901;DHT22;6518;50.930;5.344;2024-03-22T14:32:52;13.60;96.90
12901;DHT22;6518;50.930;5.344;2024-03-22T14:35:18;13.60;97.20
12901;DHT22;6518;50.930;5.344;2024-03-22T14:37:46;13.40;98.30
12901;DHT22;6518;50.930;5.344;2024-03-22T14:40:14;13.10;99.90
12901;DHT22;6518;50.930;5.344;2024-03-22T14:42:42;13.00;99.90
12901;DHT22;6518;50.930;5.344;2024-03-22T14:45:09;12.90;99.90
12901;DHT22;6518;50.930;5.344;2024-03-22T14:47:36;12.90;99.90
12901;DHT22;6518;50.930;5.344;2024-03-22T14:50:03;12.90;99.90
12901;DHT22;6518;50.930;5.344;2024-03-22T14:52:30;12.90;99.90
12901;DHT22;6518;50.930;5.344;2024-03-22T14:54:56;12.80;99.90
12901;DHT22;6518;50.930;5.344;2024-03-22T14:57:24;12.80;99.90
12901;DHT22;6518;50.930;5.344;2024-03-22T14:59:50;12.80;99.90
12901;DHT22;6518;50.930;5.344;2024-03-22T15:02:18;12.70;99.90
12901;DHT22;6518;50.930;5.344;2024-03-22T15:04:44;12.80;99.90
12901;DHT22;6518;50.930;5.344;2024-03-22T15:07:11;12.80;99.90
12901;DHT22;6518;50.930;5.344;2024-03-22T15:09:38;12.80;99.90
12901;DHT22;6518;50.930;5.344;2024-03-22T15:12:06;12.80;99.90
12901;DHT22;6518;50.930;5.344;2024-03-22T15:14:35;12.80;99.90
12901;DHT22;6518;50.930;5.344;2024-03-22T15:17:02;12.70;99.90
12901;DHT22;6518;50.930;5.344;2024-03-22T15:19:28;12.70;99.90
12901;DHT22;6518;50.930;5.344;2024-03-22T15:21:55;12.70;99.90
12901;DHT22;6518;50.930;5.344;2024-03-22T15:24:21;12.70;99.90
12901;DHT22;6518;50.930;5.344;2024-03-22T15:26:48;12.70;99.90
12901;DHT22;6518;50.930;5.344;2024-03-22T15:29:14;12.70;99.90
12901;DHT22;6518;50.930;5.344;2024-03-22T15:31:42;12.70;99.90
12901;DHT22;6518;50.930;5.344;2024-03-22T15:34:09;12.60;99.90
12901;DHT22;6518;50.930;5.344;2024-03-22T15:36:36;12.60;99.90
12901;DHT22;6518;50.930;5.344;2024-03-22T15:39:04;12.60;99.90
12901;DHT22;6518;50.930;5.344;2024-03-22T15:41:33;12.60;99.90
12901;DHT22;6518;50.930;5.344;2024-03-22T15:43:59;12.70;99.90